createdAt,value
2023-05-15T00:00:32.234Z,100455.29
2023-05-15T00:01:36.468Z,100459.28
2023-05-15T00:02:40.916Z,100455.23
2023-05-15T00:03:44.619Z,100456.08
2023-05-15T00:04:47.447Z,100460.85
2023-05-15T00:05:50.488Z,100450.27
2023-05-15T00:06:53.859Z,100452.81
2023-05-15T00:07:57.916Z,100448.73
2023-05-15T00:09:01.423Z,100453.97
2023-05-15T00:10:08.365Z,100456.38
2023-05-15T00:11:12.300Z,100450.77
2023-05-15T00:12:15.947Z,100450.37
2023-05-15T00:13:21.178Z,100448.38
2023-05-15T00:14:27.616Z,100448.97
2023-05-15T00:15:33.312Z,100446.03
2023-05-15T00:16:36.667Z,100443.48
2023-05-15T00:17:40.340Z,100441.65
2023-05-15T00:18:43.967Z,100439.95
2023-05-15T00:19:47.645Z,100443.73
2023-05-15T00:20:50.427Z,100449.69
2023-05-15T00:21:54.341Z,100453.22
2023-05-15T00:22:58.463Z,100451.91
2023-05-15T00:24:01.864Z,100450.50
2023-05-15T00:25:05.195Z,100451.02
2023-05-15T00:26:08.790Z,100453.25
2023-05-15T00:27:12.494Z,100449.59
2023-05-15T00:28:15.982Z,100450.39
2023-05-15T00:29:22.233Z,100447.38
2023-05-15T00:30:27.500Z,100443.42
2023-05-15T00:31:30.940Z,100447.80
2023-05-15T00:32:38.332Z,100452.44
2023-05-15T00:33:42.393Z,100453.33
2023-05-15T00:34:47.268Z,100451.77
2023-05-15T00:35:50.774Z,100450.91
2023-05-15T00:36:54.374Z,100446.53
2023-05-15T00:37:57.060Z,100444.83
2023-05-15T00:39:00.218Z,100452.44
2023-05-15T00:40:03.702Z,100441.00
2023-05-15T00:41:08.398Z,100451.13
2023-05-15T00:42:13.475Z,100447.72
2023-05-15T00:43:16.660Z,100446.02
2023-05-15T00:44:20.648Z,100445.17
2023-05-15T00:45:26.704Z,100449.11
2023-05-15T00:46:32.469Z,100439.25
2023-05-15T00:47:35.756Z,100440.95
2023-05-15T00:48:39.103Z,100447.28
2023-05-15T00:49:43.524Z,100442.91
2023-05-15T00:50:47.887Z,100439.89
2023-05-15T00:51:52.889Z,100445.62
2023-05-15T00:52:56.266Z,100444.94
2023-05-15T00:53:59.400Z,100437.13
2023-05-15T00:55:02.123Z,100439.20
2023-05-15T00:56:06.469Z,100449.19
2023-05-15T00:57:09.227Z,100446.39
2023-05-15T00:58:15.249Z,100433.00
2023-05-15T00:59:19.269Z,100435.80
2023-05-15T01:00:23.818Z,100432.94
2023-05-15T01:01:29.556Z,100433.45
2023-05-15T01:02:33.015Z,100437.45
2023-05-15T01:03:36.289Z,100437.45
2023-05-15T01:04:39.920Z,100432.28
2023-05-15T01:05:44.884Z,100433.95
2023-05-15T01:06:49.443Z,100431.68
2023-05-15T01:08:07.995Z,100434.53
2023-05-15T01:09:12.851Z,100428.58
2023-05-15T01:10:19.045Z,100424.08
2023-05-15T01:11:23.830Z,100423.11
2023-05-15T01:12:30.198Z,100414.48
2023-05-15T01:13:33.975Z,100423.17
2023-05-15T01:14:37.792Z,100423.81
2023-05-15T01:15:43.279Z,100422.27
2023-05-15T01:16:47.942Z,100419.38
2023-05-15T01:17:52.442Z,100419.02
2023-05-15T01:18:56.500Z,100415.46
2023-05-15T01:20:07.037Z,100415.80
2023-05-15T01:21:29.110Z,100415.43
2023-05-15T01:22:53.505Z,100424.55
2023-05-15T01:24:19.048Z,100422.51
2023-05-15T01:25:40.832Z,100417.19
2023-05-15T01:27:01.675Z,100425.45
2023-05-15T01:28:08.057Z,100422.54
2023-05-15T01:29:22.252Z,100420.69
2023-05-15T01:30:33.814Z,100420.06
2023-05-15T01:31:38.631Z,100423.00
2023-05-15T01:32:49.195Z,100414.88
2023-05-15T01:33:54.450Z,100420.80
2023-05-15T01:35:13.072Z,100416.81
2023-05-15T01:36:27.370Z,100417.19
2023-05-15T01:37:32.652Z,100421.31
2023-05-15T01:38:49.896Z,100419.09
2023-05-15T01:39:55.451Z,100414.86
2023-05-15T01:41:16.394Z,100419.84
2023-05-15T01:42:23.646Z,100414.62
2023-05-15T01:43:28.908Z,100412.44
2023-05-15T01:44:35.036Z,100412.20
2023-05-15T01:45:39.991Z,100420.06
2023-05-15T01:46:46.622Z,100414.99
2023-05-15T01:47:50.744Z,100414.62
2023-05-15T01:48:56.879Z,100414.63
2023-05-15T01:50:02.710Z,100409.63
2023-05-15T01:51:08.608Z,100401.27
2023-05-15T01:52:19.520Z,100412.31
2023-05-15T01:53:22.767Z,100411.95
2023-05-15T01:54:28.509Z,100406.37
2023-05-15T01:55:33.065Z,100412.58
2023-05-15T01:56:38.523Z,100416.80
2023-05-15T01:57:42.996Z,100410.60
2023-05-15T01:58:48.996Z,100411.45
2023-05-15T01:59:53.876Z,100409.41
2023-05-15T02:01:00.655Z,100416.67
2023-05-15T02:02:06.237Z,100416.22
2023-05-15T02:03:11.339Z,100413.41
2023-05-15T02:04:18.425Z,100419.36
2023-05-15T02:05:25.123Z,100414.49
2023-05-15T02:06:32.295Z,100412.91
2023-05-15T02:07:36.608Z,100406.98
2023-05-15T02:08:39.804Z,100413.17
2023-05-15T02:09:44.950Z,100413.41
2023-05-15T02:10:49.606Z,100413.41
2023-05-15T02:11:54.992Z,100407.95
2023-05-15T02:13:01.330Z,100411.20
2023-05-15T02:14:09.083Z,100410.13
2023-05-15T02:15:12.705Z,100405.63
2023-05-15T02:16:17.102Z,100402.84
2023-05-15T02:17:21.530Z,100401.76
2023-05-15T02:18:26.268Z,100401.76
2023-05-15T02:19:30.082Z,100407.09
2023-05-15T02:20:33.212Z,100405.03
2023-05-15T02:21:36.675Z,100400.31
2023-05-15T02:22:40.165Z,100402.59
2023-05-15T02:23:45.384Z,100399.68
2023-05-15T02:24:48.590Z,100406.48
2023-05-15T02:26:11.465Z,100413.17
2023-05-15T02:27:29.293Z,100411.08
2023-05-15T02:28:34.569Z,100412.45
2023-05-15T02:29:38.694Z,100413.87
2023-05-15T02:30:45.860Z,100407.34
2023-05-15T02:31:50.073Z,100415.11
2023-05-15T02:33:01.291Z,100410.02
2023-05-15T02:34:15.805Z,100413.30
2023-05-15T02:35:37.483Z,100414.39
2023-05-15T02:36:41.510Z,100403.81
2023-05-15T02:37:48.350Z,100408.67
2023-05-15T02:38:54.797Z,100410.11
2023-05-15T02:40:00.405Z,100414.64
2023-05-15T02:41:05.731Z,100411.97
2023-05-15T02:42:11.257Z,100414.25
2023-05-15T02:43:17.008Z,100418.34
2023-05-15T02:44:20.117Z,100416.64
2023-05-15T02:45:28.041Z,100409.43
2023-05-15T02:46:33.256Z,100410.36
2023-05-15T02:47:37.035Z,100419.58
2023-05-15T02:48:40.724Z,100420.45
2023-05-15T02:49:44.780Z,100418.62
2023-05-15T02:50:50.781Z,100412.42
2023-05-15T02:51:54.278Z,100413.83
2023-05-15T02:53:08.352Z,100411.69
2023-05-15T02:54:12.264Z,100417.33
2023-05-15T02:55:16.492Z,100408.53
2023-05-15T02:56:21.269Z,100424.57
2023-05-15T02:57:25.284Z,100411.50
2023-05-15T02:58:33.086Z,100410.53
2023-05-15T02:59:36.890Z,100414.46
2023-05-15T03:00:40.387Z,100407.47
2023-05-15T03:01:43.393Z,100407.81
2023-05-15T03:02:47.248Z,100415.71
2023-05-15T03:03:50.807Z,100411.55
2023-05-15T03:04:54.731Z,100413.59
2023-05-15T03:06:02.235Z,100407.42
2023-05-15T03:07:05.707Z,100413.97
2023-05-15T03:08:09.212Z,100416.94
2023-05-15T03:09:14.959Z,100419.56
2023-05-15T03:10:18.057Z,100414.89
2023-05-15T03:11:22.525Z,100416.33
2023-05-15T03:12:26.568Z,100422.53
2023-05-15T03:13:30.286Z,100415.22
2023-05-15T03:14:33.737Z,100417.50
2023-05-15T03:15:37.495Z,100423.97
2023-05-15T03:16:42.046Z,100418.88
2023-05-15T03:17:46.507Z,100418.16
2023-05-15T03:18:49.188Z,100421.81
2023-05-15T03:19:52.900Z,100423.09
2023-05-15T03:20:56.391Z,100417.07
2023-05-15T03:22:03.597Z,100418.34
2023-05-15T03:23:07.267Z,100418.77
2023-05-15T03:24:09.725Z,100422.17
2023-05-15T03:25:13.333Z,100427.01
2023-05-15T03:26:15.895Z,100420.55
2023-05-15T03:27:19.104Z,100424.63
2023-05-15T03:28:22.745Z,100419.27
2023-05-15T03:29:26.317Z,100422.14
2023-05-15T03:30:29.921Z,100424.69
2023-05-15T03:31:33.546Z,100421.03
2023-05-15T03:32:37.153Z,100427.66
2023-05-15T03:33:40.535Z,100426.16
2023-05-15T03:34:44.041Z,100431.38
2023-05-15T03:35:47.651Z,100425.89
2023-05-15T03:36:51.565Z,100428.44
2023-05-15T03:37:54.969Z,100423.10
2023-05-15T03:39:01.026Z,100421.98
2023-05-15T03:40:05.745Z,100426.65
2023-05-15T03:41:10.129Z,100430.94
2023-05-15T03:42:13.486Z,100431.39
2023-05-15T03:43:17.181Z,100433.27
2023-05-15T03:44:19.876Z,100425.25
2023-05-15T03:45:23.168Z,100429.46
2023-05-15T03:46:27.743Z,100431.32
2023-05-15T03:47:31.133Z,100426.94
2023-05-15T03:48:34.619Z,100426.93
2023-05-15T03:49:39.841Z,100432.45
2023-05-15T03:50:47.818Z,100427.91
2023-05-15T03:51:52.760Z,100430.58
2023-05-15T03:52:56.490Z,100434.81
2023-05-15T03:54:00.292Z,100438.95
2023-05-15T03:55:03.701Z,100433.02
2023-05-15T03:56:07.188Z,100428.04
2023-05-15T03:57:11.019Z,100421.39
2023-05-15T03:58:14.300Z,100417.16
2023-05-15T03:59:16.983Z,100419.52
2023-05-15T04:00:19.318Z,100422.63
2023-05-15T04:01:24.312Z,100421.91
2023-05-15T04:02:28.000Z,100419.19
2023-05-15T04:03:31.597Z,100419.84
2023-05-15T04:04:35.235Z,100414.12
2023-05-15T04:05:38.665Z,100421.02
2023-05-15T04:06:41.930Z,100423.79
2023-05-15T04:07:45.227Z,100425.92
2023-05-15T04:08:48.849Z,100421.80
2023-05-15T04:09:54.452Z,100415.10
2023-05-15T04:10:59.071Z,100419.45
2023-05-15T04:12:03.226Z,100418.98
2023-05-15T04:13:06.561Z,100432.53
2023-05-15T04:14:10.742Z,100421.30
2023-05-15T04:15:15.347Z,100435.97
2023-05-15T04:16:18.311Z,100435.75
2023-05-15T04:17:22.436Z,100436.72
2023-05-15T04:18:26.694Z,100427.45
2023-05-15T04:19:30.041Z,100435.31
2023-05-15T04:20:34.496Z,100437.00
2023-05-15T04:21:37.644Z,100429.36
2023-05-15T04:22:42.228Z,100430.89
2023-05-15T04:23:45.143Z,100433.75
2023-05-15T04:24:50.569Z,100431.48
2023-05-15T04:25:54.310Z,100436.91
2023-05-15T04:26:56.733Z,100446.66
2023-05-15T04:27:59.439Z,100450.13
2023-05-15T04:29:04.862Z,100461.50
2023-05-15T04:30:12.668Z,100469.84
2023-05-15T04:31:16.228Z,100477.78
2023-05-15T04:32:21.792Z,100480.83
2023-05-15T04:33:25.837Z,100483.89
2023-05-15T04:34:30.295Z,100482.83
2023-05-15T04:35:33.905Z,100484.96
2023-05-15T04:36:39.537Z,100498.46
2023-05-15T04:37:46.040Z,100491.09
2023-05-15T04:38:49.641Z,100503.12
2023-05-15T04:39:53.250Z,100503.76
2023-05-15T04:40:57.413Z,100500.16
2023-05-15T04:42:00.258Z,100510.48
2023-05-15T04:43:05.600Z,100509.91
2023-05-15T04:44:09.455Z,100511.22
2023-05-15T04:45:13.899Z,100506.80
2023-05-15T04:46:18.481Z,100513.36
2023-05-15T04:47:22.093Z,100517.63
2023-05-15T04:48:26.087Z,100509.62
2023-05-15T04:49:29.494Z,100517.56
2023-05-15T04:50:33.625Z,100515.39
2023-05-15T04:51:35.981Z,100512.16
2023-05-15T04:52:39.709Z,100518.63
2023-05-15T04:53:41.948Z,100517.06
2023-05-15T04:54:45.295Z,100511.80
2023-05-15T04:55:51.584Z,100515.16
2023-05-15T04:56:56.734Z,100527.32
2023-05-15T04:57:59.926Z,100516.52
2023-05-15T04:59:03.314Z,100516.28
2023-05-15T05:00:12.847Z,100522.02
2023-05-15T05:01:16.541Z,100526.64
2023-05-15T05:02:23.324Z,100526.78
2023-05-15T05:03:27.588Z,100519.81
2023-05-15T05:04:32.248Z,100524.53
2023-05-15T05:05:35.753Z,100526.80
2023-05-15T05:06:39.364Z,100524.14
2023-05-15T05:07:44.349Z,100523.78
2023-05-15T05:08:47.618Z,100526.95
2023-05-15T05:09:51.157Z,100520.94
2023-05-15T05:10:58.023Z,100520.89
2023-05-15T05:12:01.587Z,100530.53
2023-05-15T05:13:06.351Z,100532.97
2023-05-15T05:14:10.794Z,100527.58
2023-05-15T05:15:14.405Z,100535.06
2023-05-15T05:16:18.924Z,100531.53
2023-05-15T05:17:22.409Z,100530.53
2023-05-15T05:18:25.854Z,100540.66
2023-05-15T05:19:29.354Z,100541.70
2023-05-15T05:20:32.459Z,100543.30
2023-05-15T05:21:35.849Z,100550.50
2023-05-15T05:22:41.233Z,100554.48
2023-05-15T05:23:49.012Z,100558.61
2023-05-15T05:24:54.190Z,100545.11
2023-05-15T05:25:57.717Z,100542.94
2023-05-15T05:26:59.949Z,100547.01
2023-05-15T05:28:03.245Z,100533.53
2023-05-15T05:29:07.502Z,100535.77
2023-05-15T05:30:10.843Z,100542.75
2023-05-15T05:31:15.664Z,100530.88
2023-05-15T05:32:21.639Z,100545.37
2023-05-15T05:33:25.477Z,100543.33
2023-05-15T05:34:28.998Z,100544.92
2023-05-15T05:35:32.799Z,100543.69
2023-05-15T05:36:36.503Z,100540.02
2023-05-15T05:37:41.278Z,100545.66
2023-05-15T05:38:45.290Z,100538.83
2023-05-15T05:39:49.847Z,100544.04
2023-05-15T05:40:53.664Z,100544.56
2023-05-15T05:41:56.948Z,100541.45
2023-05-15T05:43:01.654Z,100547.94
2023-05-15T05:44:05.327Z,100541.28
2023-05-15T05:45:09.280Z,100554.10
2023-05-15T05:46:11.720Z,100549.69
2023-05-15T05:47:15.480Z,100558.70
2023-05-15T05:48:17.882Z,100559.00
2023-05-15T05:49:20.340Z,100558.98
2023-05-15T05:50:24.170Z,100553.70
2023-05-15T05:51:26.826Z,100553.73
2023-05-15T05:52:31.912Z,100561.20
2023-05-15T05:53:34.254Z,100555.97
2023-05-15T05:54:40.794Z,100554.31
2023-05-15T05:55:43.880Z,100561.20
2023-05-15T05:56:47.411Z,100564.76
2023-05-15T05:57:52.140Z,100566.76
2023-05-15T05:58:57.316Z,100564.45
2023-05-15T06:00:00.208Z,100567.48
2023-05-15T06:01:03.799Z,100556.33
2023-05-15T06:02:07.234Z,100564.77
2023-05-15T06:03:11.211Z,100551.98
2023-05-15T06:04:18.124Z,100554.30
2023-05-15T06:05:20.756Z,100553.30
2023-05-15T06:06:25.108Z,100547.07
2023-05-15T06:07:29.954Z,100551.27
2023-05-15T06:08:34.715Z,100552.02
2023-05-15T06:09:38.337Z,100550.06
2023-05-15T06:10:44.213Z,100551.78
2023-05-15T06:11:48.261Z,100552.55
2023-05-15T06:12:50.531Z,100554.75
2023-05-15T06:13:54.029Z,100552.88
2023-05-15T06:14:57.253Z,100547.23
2023-05-15T06:16:02.163Z,100557.20
2023-05-15T06:17:04.795Z,100556.05
2023-05-15T06:18:08.302Z,100553.59
2023-05-15T06:19:11.954Z,100552.52
2023-05-15T06:20:14.854Z,100557.30
2023-05-15T06:21:18.442Z,100558.05
2023-05-15T06:22:22.676Z,100566.45
2023-05-15T06:23:25.365Z,100565.11
2023-05-15T06:24:31.835Z,100565.04
2023-05-15T06:25:36.977Z,100569.52
2023-05-15T06:26:40.138Z,100572.23
2023-05-15T06:27:46.055Z,100571.11
2023-05-15T06:28:49.342Z,100583.14
2023-05-15T06:29:52.217Z,100583.54
2023-05-15T06:30:55.564Z,100575.56
2023-05-15T06:31:59.421Z,100573.69
2023-05-15T06:33:04.785Z,100572.66
2023-05-15T06:34:08.234Z,100580.95
2023-05-15T06:35:10.576Z,100573.76
2023-05-15T06:36:13.674Z,100571.59
2023-05-15T06:37:16.992Z,100574.29
2023-05-15T06:38:20.477Z,100575.55
2023-05-15T06:39:24.088Z,100575.19
2023-05-15T06:40:28.102Z,100574.06
2023-05-15T06:41:31.879Z,100573.28
2023-05-15T06:42:36.691Z,100568.13
2023-05-15T06:43:40.084Z,100576.20
2023-05-15T06:44:43.379Z,100566.77
2023-05-15T06:45:46.683Z,100576.31
2023-05-15T06:46:49.246Z,100577.48
2023-05-15T06:47:54.892Z,100578.32
2023-05-15T06:48:58.454Z,100574.29
2023-05-15T06:50:01.828Z,100572.56
2023-05-15T06:51:06.990Z,100576.18
2023-05-15T06:52:11.254Z,100573.36
2023-05-15T06:53:14.876Z,100575.17
2023-05-15T06:54:18.897Z,100567.26
2023-05-15T06:55:22.092Z,100571.70
2023-05-15T06:56:25.489Z,100562.70
2023-05-15T06:57:27.754Z,100559.24
2023-05-15T06:58:31.167Z,100564.55
2023-05-15T06:59:36.258Z,100563.34
2023-05-15T07:00:39.555Z,100555.89
2023-05-15T07:01:43.042Z,100562.94
2023-05-15T07:02:46.656Z,100552.98
2023-05-15T07:03:48.933Z,100556.94
2023-05-15T07:04:51.921Z,100552.28
2023-05-15T07:05:54.531Z,100543.47
2023-05-15T07:06:57.908Z,100549.83
2023-05-15T07:08:02.365Z,100546.50
2023-05-15T07:09:04.952Z,100550.92
2023-05-15T07:10:10.891Z,100547.35
2023-05-15T07:11:14.354Z,100543.23
2023-05-15T07:12:17.649Z,100551.05
2023-05-15T07:13:23.136Z,100550.77
2023-05-15T07:14:29.698Z,100548.02
2023-05-15T07:15:33.496Z,100548.37
2023-05-15T07:16:35.954Z,100552.64
2023-05-15T07:17:39.417Z,100556.13
2023-05-15T07:18:43.378Z,100543.64
2023-05-15T07:19:47.820Z,100548.95
2023-05-15T07:20:51.224Z,100553.58
2023-05-15T07:21:54.614Z,100549.58
2023-05-15T07:22:57.794Z,100553.84
2023-05-15T07:24:00.175Z,100550.95
2023-05-15T07:25:03.987Z,100548.19
2023-05-15T07:26:08.825Z,100547.53
2023-05-15T07:27:14.025Z,100545.52
2023-05-15T07:28:19.551Z,100549.67
2023-05-15T07:29:23.123Z,100544.94
2023-05-15T07:30:26.664Z,100545.69
2023-05-15T07:31:31.003Z,100551.31
2023-05-15T07:32:33.699Z,100547.50
2023-05-15T07:33:39.962Z,100544.80
2023-05-15T07:34:43.462Z,100552.81
2023-05-15T07:35:46.884Z,100552.55
2023-05-15T07:36:50.175Z,100551.88
2023-05-15T07:37:54.922Z,100539.66
2023-05-15T07:39:00.309Z,100542.96
2023-05-15T07:40:03.910Z,100539.31
2023-05-15T07:41:07.528Z,100539.29
2023-05-15T07:42:10.329Z,100539.77
2023-05-15T07:43:12.585Z,100544.27
2023-05-15T07:44:16.886Z,100539.58
2023-05-15T07:45:20.564Z,100535.69
2023-05-15T07:46:23.040Z,100539.33
2023-05-15T07:47:26.589Z,100538.22
2023-05-15T07:48:30.912Z,100540.10
2023-05-15T07:49:34.314Z,100539.03
2023-05-15T07:50:37.708Z,100535.77
2023-05-15T07:51:41.365Z,100523.17
2023-05-15T07:52:45.244Z,100533.67
2023-05-15T07:53:48.542Z,100533.00
2023-05-15T07:54:55.607Z,100530.84
2023-05-15T07:55:58.760Z,100534.23
2023-05-15T07:57:01.250Z,100539.37
2023-05-15T07:58:05.771Z,100538.47
2023-05-15T07:59:10.258Z,100519.63
2023-05-15T08:00:14.584Z,100535.17
2023-05-15T08:01:18.228Z,100531.84
2023-05-15T08:02:20.984Z,100521.50
2023-05-15T08:03:24.414Z,100524.05
2023-05-15T08:04:26.896Z,100510.80
2023-05-15T08:05:30.323Z,100515.36
2023-05-15T08:06:33.950Z,100515.70
2023-05-15T08:07:37.558Z,100511.16
2023-05-15T08:08:41.036Z,100518.13
2023-05-15T08:09:45.608Z,100516.02
2023-05-15T08:10:48.931Z,100511.00
2023-05-15T08:11:51.215Z,100505.05
2023-05-15T08:12:54.547Z,100502.04
2023-05-15T08:13:58.107Z,100506.47
2023-05-15T08:15:01.967Z,100502.77
2023-05-15T08:16:05.606Z,100506.56
2023-05-15T08:17:08.980Z,100505.92
2023-05-15T08:18:11.345Z,100498.64
2023-05-15T08:19:17.154Z,100507.40
2023-05-15T08:20:20.344Z,100510.91
2023-05-15T08:21:22.590Z,100513.55
2023-05-15T08:22:26.416Z,100502.17
2023-05-15T08:23:29.753Z,100508.96
2023-05-15T08:24:33.422Z,100503.84
2023-05-15T08:25:36.156Z,100501.98
2023-05-15T08:26:42.264Z,100510.66
2023-05-15T08:27:45.709Z,100508.02
2023-05-15T08:28:48.070Z,100497.56
2023-05-15T08:29:51.458Z,100497.47
2023-05-15T08:30:57.151Z,100495.78
2023-05-15T08:32:03.210Z,100496.26
2023-05-15T08:33:06.860Z,100500.52
2023-05-15T08:34:13.447Z,100493.78
2023-05-15T08:35:17.976Z,100500.94
2023-05-15T08:36:21.385Z,100497.58
2023-05-15T08:37:24.758Z,100490.96
2023-05-15T08:38:28.066Z,100489.14
2023-05-15T08:39:30.428Z,100488.05
2023-05-15T08:40:39.009Z,100485.36
2023-05-15T08:41:50.493Z,100483.31
2023-05-15T08:42:56.271Z,100477.84
2023-05-15T08:44:02.862Z,100480.87
2023-05-15T08:45:09.235Z,100479.99
2023-05-15T08:46:13.098Z,100486.53
2023-05-15T08:47:17.153Z,100481.62
2023-05-15T08:48:26.053Z,100477.77
2023-05-15T08:49:32.472Z,100477.99
2023-05-15T08:50:38.164Z,100484.52
2023-05-15T08:51:43.130Z,100479.62
2023-05-15T08:52:48.827Z,100479.31
2023-05-15T08:53:53.181Z,100473.68
2023-05-15T08:54:56.790Z,100468.78
2023-05-15T08:56:02.170Z,100487.41
2023-05-15T08:57:06.512Z,100481.70
2023-05-15T08:58:08.871Z,100472.20
2023-05-15T08:59:17.924Z,100471.97
2023-05-15T09:00:22.991Z,100479.89
2023-05-15T09:01:27.877Z,100477.56
2023-05-15T09:02:32.206Z,100473.14
2023-05-15T09:03:35.688Z,100479.74
2023-05-15T09:04:38.975Z,100486.19
2023-05-15T09:05:41.330Z,100480.53
2023-05-15T09:06:46.513Z,100479.29
2023-05-15T09:07:51.690Z,100477.92
2023-05-15T09:08:56.045Z,100474.57
2023-05-15T09:10:00.059Z,100470.42
2023-05-15T09:11:03.985Z,100474.18
2023-05-15T09:12:08.526Z,100477.56
2023-05-15T09:13:13.084Z,100471.36
2023-05-15T09:14:17.322Z,100475.44
2023-05-15T09:15:23.165Z,100467.73
2023-05-15T09:16:27.598Z,100460.81
2023-05-15T09:17:31.452Z,100465.83
2023-05-15T09:18:35.014Z,100464.97
2023-05-15T09:19:43.045Z,100465.27
2023-05-15T09:20:46.332Z,100464.49
2023-05-15T09:21:50.108Z,100462.76
2023-05-15T09:22:53.824Z,100464.15
2023-05-15T09:24:11.660Z,100462.02
2023-05-15T09:25:17.538Z,100461.73
2023-05-15T09:26:21.869Z,100460.31
2023-05-15T09:27:25.801Z,100450.17
2023-05-15T09:28:29.774Z,100457.55
2023-05-15T09:29:34.056Z,100450.47
2023-05-15T09:30:41.867Z,100457.64
2023-05-15T09:31:47.158Z,100454.69
2023-05-15T09:32:52.239Z,100453.02
2023-05-15T09:33:57.998Z,100452.83
2023-05-15T09:35:01.287Z,100450.13
2023-05-15T09:36:05.737Z,100447.97
2023-05-15T09:37:10.820Z,100443.63
2023-05-15T09:38:17.346Z,100440.16
2023-05-15T09:39:25.679Z,100447.78
2023-05-15T09:40:29.457Z,100454.73
2023-05-15T09:41:32.876Z,100452.12
2023-05-15T09:42:38.826Z,100453.55
2023-05-15T09:43:42.066Z,100459.95
2023-05-15T09:44:47.105Z,100451.99
2023-05-15T09:45:51.081Z,100460.41
2023-05-15T09:46:53.603Z,100455.19
2023-05-15T09:47:58.063Z,100456.41
2023-05-15T09:49:08.592Z,100448.43
2023-05-15T09:50:11.374Z,100451.02
2023-05-15T09:51:22.199Z,100458.57
2023-05-15T09:52:28.188Z,100442.16
2023-05-15T09:53:33.896Z,100446.39
2023-05-15T09:54:38.129Z,100438.73
2023-05-15T09:55:42.155Z,100442.65
2023-05-15T09:56:45.776Z,100440.41
2023-05-15T09:57:50.722Z,100434.31
2023-05-15T09:58:57.654Z,100441.22
2023-05-15T10:00:04.024Z,100441.09
2023-05-15T10:01:11.664Z,100440.17
2023-05-15T10:02:16.856Z,100441.32
2023-05-15T10:03:20.274Z,100440.17
2023-05-15T10:04:24.414Z,100446.88
2023-05-15T10:05:42.043Z,100436.84
2023-05-15T10:06:40.619Z,100439.66
2023-05-15T10:07:44.859Z,100444.53
2023-05-15T10:08:52.951Z,100446.80
2023-05-15T10:09:56.528Z,100442.84
2023-05-15T10:11:02.574Z,100435.34
2023-05-15T10:12:11.316Z,100433.50
2023-05-15T10:13:15.224Z,100428.41
2023-05-15T10:14:19.340Z,100429.59
2023-05-15T10:15:23.421Z,100435.92
2023-05-15T10:16:28.280Z,100434.71
2023-05-15T10:17:33.179Z,100432.45
2023-05-15T10:18:38.873Z,100427.63
2023-05-15T10:19:56.657Z,100426.19
2023-05-15T10:20:51.477Z,100417.63
2023-05-15T10:21:58.596Z,100423.73
2023-05-15T10:23:05.868Z,100425.48
2023-05-15T10:24:09.677Z,100415.63
2023-05-15T10:25:23.728Z,100427.06
2023-05-15T10:26:39.195Z,100424.81
2023-05-15T10:27:43.399Z,100419.02
2023-05-15T10:28:47.004Z,100416.66
2023-05-15T10:29:52.910Z,100415.50
2023-05-15T10:30:59.303Z,100422.73
2023-05-15T10:32:02.727Z,100411.70
2023-05-15T10:33:08.625Z,100423.49
2023-05-15T10:34:11.626Z,100419.49
2023-05-15T10:35:16.344Z,100408.34
2023-05-15T10:36:20.414Z,100413.02
2023-05-15T10:38:32.731Z,100409.40
2023-05-15T10:39:42.059Z,100405.78
2023-05-15T10:40:45.296Z,100410.28
2023-05-15T10:41:50.481Z,100411.86
2023-05-15T10:42:55.561Z,100400.97
2023-05-15T10:44:02.597Z,100404.55
2023-05-15T10:45:07.741Z,100400.06
2023-05-15T10:46:12.320Z,100401.14
2023-05-15T10:47:16.102Z,100401.75
2023-05-15T10:48:21.052Z,100397.24
2023-05-15T10:49:24.614Z,100397.01
2023-05-15T10:50:28.642Z,100396.84
2023-05-15T10:51:33.720Z,100404.17
2023-05-15T10:52:38.672Z,100405.01
2023-05-15T10:53:42.290Z,100405.20
2023-05-15T10:54:44.853Z,100413.45
2023-05-15T10:55:49.935Z,100410.78
2023-05-15T10:56:55.092Z,100415.33
2023-05-15T10:57:58.301Z,100408.34
2023-05-15T10:59:07.968Z,100407.25
2023-05-15T11:00:25.507Z,100404.90
2023-05-15T11:01:30.258Z,100400.09
2023-05-15T11:02:36.771Z,100393.30
2023-05-15T11:03:48.024Z,100396.75
2023-05-15T11:04:46.122Z,100392.11
2023-05-15T11:06:10.443Z,100392.80
2023-05-15T11:07:14.883Z,100391.02
2023-05-15T11:08:21.006Z,100394.62
2023-05-15T11:09:33.035Z,100395.06
2023-05-15T11:10:37.011Z,100392.27
2023-05-15T11:11:46.946Z,100385.76
2023-05-15T11:12:57.599Z,100386.99
2023-05-15T11:14:09.140Z,100388.90
2023-05-15T11:15:15.458Z,100385.55
2023-05-15T11:16:36.895Z,100381.12
2023-05-15T11:17:42.359Z,100385.31
2023-05-15T11:18:44.809Z,100380.76
2023-05-15T11:19:50.058Z,100375.39
2023-05-15T11:20:56.803Z,100377.53
2023-05-15T11:22:12.348Z,100363.52
2023-05-15T11:23:15.725Z,100375.09
2023-05-15T11:24:18.437Z,100370.55
2023-05-15T11:25:22.943Z,100366.09
2023-05-15T11:26:34.601Z,100367.80
2023-05-15T11:27:39.751Z,100364.22
2023-05-15T11:28:47.757Z,100357.83
2023-05-15T11:30:05.687Z,100357.83
2023-05-15T11:31:08.941Z,100363.38
2023-05-15T11:32:30.360Z,100359.77
2023-05-15T11:33:34.052Z,100352.45
2023-05-15T11:34:39.111Z,100353.47
2023-05-15T11:35:49.083Z,100344.50
2023-05-15T11:36:54.183Z,100347.23
2023-05-15T11:37:57.375Z,100351.74
2023-05-15T11:39:00.984Z,100341.84
2023-05-15T11:40:06.987Z,100340.91
2023-05-15T11:41:20.505Z,100342.69
2023-05-15T11:42:24.913Z,100335.70
2023-05-15T11:44:34.272Z,100341.67
2023-05-15T11:45:40.002Z,100344.11
2023-05-15T11:46:45.751Z,100340.23
2023-05-15T11:47:50.273Z,100340.33
2023-05-15T11:48:54.352Z,100335.31
2023-05-15T11:49:57.968Z,100340.05
2023-05-15T11:51:05.129Z,100336.58
2023-05-15T11:52:08.836Z,100339.00
2023-05-15T11:53:13.423Z,100336.37
2023-05-15T11:54:17.115Z,100334.09
2023-05-15T11:55:21.809Z,100332.41
2023-05-15T11:56:30.925Z,100332.79
2023-05-15T11:57:34.403Z,100326.41
2023-05-15T11:58:38.758Z,100331.09
2023-05-15T11:59:43.237Z,100329.42
2023-05-15T12:00:48.679Z,100328.09
2023-05-15T12:01:51.348Z,100321.66
2023-05-15T12:02:55.301Z,100321.95
2023-05-15T12:03:58.973Z,100329.42
2023-05-15T12:05:02.580Z,100322.00
2023-05-15T12:06:07.874Z,100316.48
2023-05-15T12:07:12.786Z,100324.19
2023-05-15T12:08:17.716Z,100310.98
2023-05-15T12:09:24.229Z,100311.49
2023-05-15T12:10:27.867Z,100311.33
2023-05-15T12:11:32.101Z,100316.30
2023-05-15T12:12:36.640Z,100319.26
2023-05-15T12:13:39.524Z,100314.30
2023-05-15T12:14:46.404Z,100308.53
2023-05-15T12:15:52.178Z,100313.50
2023-05-15T12:16:59.765Z,100304.78
2023-05-15T12:18:03.794Z,100305.69
2023-05-15T12:19:06.796Z,100308.19
2023-05-15T12:20:12.641Z,100306.59
2023-05-15T12:21:17.529Z,100308.69
2023-05-15T12:22:21.502Z,100300.14
2023-05-15T12:23:28.943Z,100303.28
2023-05-15T12:24:32.384Z,100303.34